createdAt,value
2017-11-13T06:42:33.684Z,240
2017-11-13T06:43:55.523Z,268
2017-11-13T06:45:18.041Z,304
2017-11-13T06:46:40.202Z,336
2017-11-13T06:48:02.379Z,380
2017-11-13T06:49:24.575Z,416
2017-11-13T06:50:46.126Z,460
2017-11-13T06:52:08.345Z,504
2017-11-13T06:53:29.853Z,552
2017-11-13T06:54:52.027Z,596
2017-11-13T06:56:13.547Z,644
2017-11-13T06:57:35.713Z,692
2017-11-13T06:58:57.566Z,744
2017-11-13T07:00:19.886Z,792
2017-11-13T07:01:41.824Z,844
2017-11-13T07:03:03.347Z,896
2017-11-13T07:04:25.206Z,944
2017-11-13T07:05:47.086Z,996
2017-11-13T07:07:09.327Z,1048
2017-11-13T07:08:30.856Z,1100
2017-11-13T07:09:52.717Z,1152
2017-11-13T07:11:14.217Z,1204
2017-11-13T07:12:36.055Z,1256
2017-11-13T07:13:57.352Z,1300
2017-11-13T07:15:19.317Z,1352
2017-11-13T07:16:41.200Z,1400
2017-11-13T07:18:03.061Z,1448
2017-11-13T07:19:24.836Z,1496
2017-11-13T07:20:47.419Z,1544
2017-11-13T07:22:09.941Z,1584
2017-11-13T07:23:32.439Z,1632
2017-11-13T07:24:54.977Z,1676
2017-11-13T07:26:17.186Z,1716
2017-11-13T07:27:39.079Z,1760
2017-11-13T07:29:01.657Z,1800
2017-11-13T07:30:23.858Z,1840
2017-11-13T07:31:46.626Z,1880
2017-11-13T07:33:08.469Z,1916
2017-11-13T07:34:30.305Z,1952
2017-11-13T07:35:52.515Z,1988
2017-11-13T07:37:14.514Z,2020
2017-11-13T07:38:36.052Z,2056
2017-11-13T07:39:58.698Z,2088
2017-11-13T07:41:20.910Z,2120
2017-11-13T07:42:42.729Z,2152
2017-11-13T07:44:04.918Z,2184
2017-11-13T07:45:26.786Z,2212
2017-11-13T07:46:48.637Z,2244
2017-11-13T07:48:11.253Z,2272
2017-11-13T07:49:32.490Z,2304
2017-11-13T07:50:54.326Z,2332
2017-11-13T07:52:16.534Z,2356
2017-11-13T07:53:38.409Z,2384
2017-11-13T07:55:00.422Z,2412
2017-11-13T07:56:22.633Z,2432
2017-11-13T07:57:44.499Z,2460
2017-11-13T07:59:06.366Z,2484
2017-11-13T08:00:28.569Z,2508
2017-11-13T08:01:50.758Z,2532
2017-11-13T08:03:13.027Z,2552
2017-11-13T08:04:35.029Z,2580
2017-11-13T08:05:56.606Z,2600
2017-11-13T08:07:19.180Z,2620
2017-11-13T08:08:41.066Z,2644
2017-11-13T08:10:03.588Z,2664
2017-11-13T08:11:26.117Z,2680
2017-11-13T08:12:48.304Z,2700
2017-11-13T08:14:09.860Z,2724
2017-11-13T08:15:32.078Z,2740
2017-11-13T08:16:54.281Z,2760
2017-11-13T08:18:16.828Z,2776
2017-11-13T08:19:39.345Z,2792
2017-11-13T08:21:01.207Z,2808
2017-11-13T08:22:23.450Z,2828
2017-11-13T08:23:45.969Z,2840
2017-11-13T08:25:08.227Z,2860
2017-11-13T08:26:30.784Z,2876
2017-11-13T08:27:53.356Z,2888
2017-11-13T08:29:15.269Z,2904
2017-11-13T08:30:37.553Z,2920
2017-11-13T08:32:28.871Z,2936
2017-11-13T08:33:51.406Z,2952
2017-11-13T08:35:12.597Z,2968
2017-11-13T08:36:34.453Z,2980
2017-11-13T08:37:57.075Z,3000
2017-11-13T08:39:19.281Z,3016
2017-11-13T08:40:41.148Z,3044
2017-11-13T08:42:03.371Z,3076
2017-11-13T08:43:24.547Z,3084
2017-11-13T08:44:46.725Z,3092
2017-11-13T08:46:08.601Z,3092
2017-11-13T08:47:30.847Z,3092
2017-11-13T08:48:52.393Z,3104
2017-11-13T08:50:14.298Z,3108
2017-11-13T08:51:36.481Z,3116
2017-11-13T08:52:58.666Z,3124
2017-11-13T08:54:21.175Z,3140
2017-11-13T08:55:43.069Z,3160
2017-11-13T08:57:04.585Z,3172
2017-11-13T08:58:26.849Z,3180
2017-11-13T08:59:49.061Z,3176
2017-11-13T09:01:10.949Z,3176
2017-11-13T09:02:33.463Z,3180
2017-11-13T09:03:55.332Z,3196
2017-11-13T09:05:17.197Z,3188
2017-11-13T09:06:39.385Z,3212
2017-11-13T09:08:01.593Z,3268
2017-11-13T09:09:23.836Z,3288
2017-11-13T09:10:46.096Z,3280
2017-11-13T09:12:08.331Z,3256
2017-11-13T09:13:30.201Z,3304
2017-11-13T09:14:52.396Z,3328
2017-11-13T09:16:14.634Z,3336
2017-11-13T09:17:36.823Z,3344
2017-11-13T09:18:59.437Z,3356
2017-11-13T09:20:20.926Z,3364
2017-11-13T09:21:43.169Z,3380
2017-11-13T09:23:04.737Z,3404
2017-11-13T09:24:26.615Z,3428
2017-11-13T09:25:48.138Z,3432
2017-11-13T09:27:09.993Z,3412
2017-11-13T09:28:31.835Z,3364
2017-11-13T09:29:53.729Z,3384
2017-11-13T09:31:14.926Z,3376
2017-11-13T09:32:36.444Z,3376
2017-11-13T09:33:58.388Z,3380
2017-11-13T09:35:20.230Z,3324
2017-11-13T09:36:42.108Z,3372
2017-11-13T09:38:04.774Z,3392
2017-11-13T09:39:26.269Z,3404
2017-11-13T09:40:48.464Z,3412
2017-11-13T09:42:10.299Z,3412
2017-11-13T09:43:32.144Z,3416
2017-11-13T09:44:54.426Z,3424
2017-11-13T09:46:15.936Z,3428
2017-11-13T09:47:38.144Z,3432
2017-11-13T09:49:00.234Z,3432
2017-11-13T09:50:22.423Z,3440
2017-11-13T09:51:44.274Z,3444
2017-11-13T09:53:06.548Z,3448
2017-11-13T09:54:29.084Z,3456
2017-11-13T09:55:50.939Z,3460
2017-11-13T09:57:12.794Z,3464
2017-11-13T09:58:34.652Z,3468
2017-11-13T09:59:56.957Z,3472
2017-11-13T10:01:19.125Z,3484
2017-11-13T10:02:40.644Z,3488
2017-11-13T10:04:02.504Z,3496
2017-11-13T10:05:25.080Z,3512
2017-11-13T10:06:46.945Z,3528
2017-11-13T10:08:09.160Z,3556
2017-11-13T10:09:31.342Z,3556
2017-11-13T10:10:53.189Z,3548
2017-11-13T10:12:15.079Z,3548
2017-11-13T10:13:37.628Z,3568
2017-11-13T10:14:59.817Z,3576
2017-11-13T10:16:21.999Z,3564
2017-11-13T10:17:44.541Z,3536
2017-11-13T10:19:07.080Z,3528
2017-11-13T10:20:28.923Z,3524
2017-11-13T10:21:51.019Z,3528
2017-11-13T10:23:13.568Z,3532
2017-11-13T10:24:35.835Z,3528
2017-11-13T10:25:58.028Z,3524
2017-11-13T10:27:20.214Z,3528
2017-11-13T10:28:42.168Z,3532
2017-11-13T10:30:04.742Z,3532
2017-11-13T10:31:26.261Z,3536
2017-11-13T10:32:48.126Z,3536
2017-11-13T10:34:09.974Z,3536
2017-11-13T10:35:32.506Z,3540
2017-11-13T10:36:55.047Z,3540
2017-11-13T10:38:17.585Z,3540
2017-11-13T10:39:39.429Z,3548
2017-11-13T10:41:00.645Z,3552
2017-11-13T10:42:23.205Z,3556
2017-11-13T10:43:45.043Z,3560
2017-11-13T10:45:07.214Z,3560
2017-11-13T10:46:29.764Z,3564
2017-11-13T10:47:51.941Z,3564
2017-11-13T10:49:14.124Z,3568
2017-11-13T10:50:36.424Z,3572
2017-11-13T10:51:58.968Z,3568
2017-11-13T10:53:20.820Z,3568
2017-11-13T10:54:42.696Z,3568
2017-11-13T10:56:04.598Z,3572
2017-11-13T10:57:26.159Z,3572
2017-11-13T10:58:47.771Z,3576
2017-11-13T11:00:10.082Z,3576
2017-11-13T11:01:32.335Z,3576
2017-11-13T11:02:54.551Z,3576
2017-11-13T11:04:16.112Z,3584
2017-11-13T11:05:38.323Z,3584
2017-11-13T11:07:00.553Z,3588
2017-11-13T11:08:22.534Z,3588
2017-11-13T11:09:44.443Z,3592
2017-11-13T11:11:06.984Z,3588
2017-11-13T11:12:29.193Z,3592
2017-11-13T11:13:51.376Z,3596
2017-11-13T11:15:13.728Z,3596
2017-11-13T11:16:36.251Z,3596
2017-11-13T11:17:58.110Z,3596
2017-11-13T11:19:19.966Z,3600
2017-11-13T11:20:42.234Z,3604
2017-11-13T11:22:04.734Z,3608
2017-11-13T11:23:26.599Z,3608
2017-11-13T11:24:48.123Z,3608
2017-11-13T11:26:09.778Z,3608
2017-11-13T11:27:31.415Z,3612
2017-11-13T11:28:53.729Z,3612
2017-11-13T11:30:14.911Z,3620
2017-11-13T11:31:36.531Z,3652
2017-11-13T11:32:58.394Z,3612
2017-11-13T11:34:20.362Z,3660
2017-11-13T11:35:42.921Z,3656
2017-11-13T11:37:04.828Z,3632
2017-11-13T11:38:26.253Z,3632
2017-11-13T11:39:48.573Z,3640
2017-11-13T11:41:10.434Z,3652
2017-11-13T11:42:32.293Z,3668
2017-11-13T11:43:53.844Z,3680
2017-11-13T11:45:15.694Z,3696
2017-11-13T11:46:37.583Z,3724
2017-11-13T11:47:59.916Z,3736
2017-11-13T11:49:21.784Z,3688
2017-11-13T11:50:43.974Z,3648
2017-11-13T11:52:06.494Z,3616
2017-11-13T11:53:28.698Z,3644
2017-11-13T11:54:50.889Z,3640
2017-11-13T11:56:13.099Z,3636
2017-11-13T11:57:35.321Z,3704
2017-11-13T11:58:57.548Z,3752
2017-11-13T12:00:20.193Z,3788
2017-11-13T12:01:42.066Z,3816
2017-11-13T12:03:04.070Z,3852
2017-11-13T12:04:25.926Z,3760
2017-11-13T12:05:48.060Z,3720
2017-11-13T12:07:10.603Z,3712
2017-11-13T12:08:32.163Z,3708
2017-11-13T12:09:54.036Z,3676
2017-11-13T12:11:15.877Z,3652
2017-11-13T12:12:38.443Z,3656
2017-11-13T12:14:00.724Z,3668
2017-11-13T12:15:23.272Z,3680
2017-11-13T12:16:45.138Z,3668
2017-11-13T12:18:07.743Z,3664
2017-11-13T12:19:30.284Z,3652
2017-11-13T12:20:52.149Z,3636
2017-11-13T12:22:14.253Z,3592
2017-11-13T12:23:36.113Z,3632
2017-11-13T12:24:58.293Z,3648
2017-11-13T12:26:20.550Z,3660
2017-11-13T12:27:42.803Z,3668
2017-11-13T12:29:04.681Z,3468
2017-11-13T12:30:26.887Z,3348
2017-11-13T12:31:49.064Z,3604
2017-11-13T12:33:11.294Z,3600
2017-11-13T12:34:32.835Z,3596
2017-11-13T12:35:54.680Z,3568
2017-11-13T12:37:16.630Z,3564
2017-11-13T12:38:38.948Z,3220
2017-11-13T12:40:00.867Z,3496
2017-11-13T12:41:22.414Z,3544
2017-11-13T12:42:44.634Z,3556
2017-11-13T12:44:07.176Z,3568
2017-11-13T12:45:29.196Z,3244
2017-11-13T12:46:51.395Z,3448
2017-11-13T12:48:12.930Z,3596
2017-11-13T12:49:34.802Z,3600
2017-11-13T12:50:56.662Z,3536
2017-11-13T12:52:18.184Z,3512
2017-11-13T12:53:40.408Z,3596
2017-11-13T12:55:02.371Z,3608
2017-11-13T12:56:24.255Z,3616
2017-11-13T12:57:46.825Z,3620
2017-11-13T12:59:09.524Z,3356
2017-11-13T13:00:31.773Z,3408
2017-11-13T13:01:53.972Z,3664
2017-11-13T13:03:15.476Z,3740
2017-11-13T13:04:37.331Z,3848
2017-11-13T13:05:59.219Z,3972
2017-11-13T13:07:21.401Z,3976
2017-11-13T13:08:42.953Z,3944
2017-11-13T13:10:04.806Z,3940
2017-11-13T13:11:27.152Z,3988
2017-11-13T13:12:49.025Z,4092
2017-11-13T13:14:11.205Z,4596
2017-11-13T13:15:33.062Z,4788
2017-11-13T13:16:55.587Z,4860
2017-11-13T13:18:17.924Z,4740
2017-11-13T13:19:40.603Z,4832
2017-11-13T13:21:02.792Z,5128
2017-11-13T13:22:25.318Z,5140
2017-11-13T13:23:47.871Z,5008
2017-11-13T13:25:10.165Z,4468
2017-11-13T13:26:32.016Z,4260
2017-11-13T13:27:54.269Z,4044
2017-11-13T13:29:15.786Z,4100
2017-11-13T13:30:38.069Z,4168
2017-11-13T13:32:00.265Z,4220
2017-11-13T13:33:22.832Z,4232
2017-11-13T13:34:44.779Z,4092
2017-11-13T13:36:06.995Z,3880
2017-11-13T13:37:28.536Z,3776
2017-11-13T13:38:51.116Z,3772
2017-11-13T13:40:13.328Z,3872
2017-11-13T13:41:35.880Z,3876
2017-11-13T13:42:57.517Z,3828
2017-11-13T13:44:19.730Z,3836
2017-11-13T13:45:41.938Z,3712
2017-11-13T13:47:04.509Z,3684
2017-11-13T13:48:27.033Z,3692
2017-11-13T13:50:03.457Z,3708
2017-11-13T13:51:25.659Z,3712
2017-11-13T13:52:48.188Z,3880
2017-11-13T13:54:09.704Z,3972
2017-11-13T13:55:32.259Z,3984
2017-11-13T13:56:54.106Z,3960
2017-11-13T13:58:16.336Z,3744
2017-11-13T13:59:38.515Z,3528
2017-11-13T14:01:01.074Z,3420
2017-11-13T14:02:23.287Z,3352
2017-11-13T14:03:45.530Z,3276
2017-11-13T14:05:07.874Z,3272
2017-11-13T14:06:30.426Z,3356
2017-11-13T14:07:52.994Z,3476
2017-11-13T14:09:15.228Z,3524
2017-11-13T14:10:36.764Z,3504
2017-11-13T14:11:58.628Z,3560
2017-11-13T14:13:21.207Z,3568
2017-11-13T14:14:43.483Z,3536
2017-11-13T14:16:05.037Z,3384
2017-11-13T14:17:26.604Z,3144
2017-11-13T14:18:49.146Z,2948
2017-11-13T14:20:10.780Z,2692
2017-11-13T14:21:33.324Z,2636
2017-11-13T14:22:55.504Z,2580
2017-11-13T14:24:17.749Z,2516
2017-11-13T14:25:40.283Z,2532
2017-11-13T14:27:02.166Z,2500
2017-11-13T14:28:24.400Z,2448
2017-11-13T14:29:46.924Z,2416
2017-11-13T14:31:09.467Z,2348
2017-11-13T14:32:31.366Z,2288
2017-11-13T14:33:53.024Z,2236
2017-11-13T14:35:14.996Z,2208
2017-11-13T14:36:36.852Z,2164
2017-11-13T14:37:59.068Z,2128
2017-11-13T14:39:20.916Z,2048
2017-11-13T14:40:43.135Z,2008
2017-11-13T14:42:05.007Z,1984
2017-11-13T14:43:26.876Z,1952
2017-11-13T14:44:49.427Z,1896
2017-11-13T14:46:11.644Z,1848
2017-11-13T14:47:33.968Z,1808
2017-11-13T14:48:56.346Z,1760
2017-11-13T14:50:18.905Z,1720
2017-11-13T14:51:41.109Z,1684
2017-11-13T14:53:03.647Z,1636
2017-11-13T14:54:25.537Z,1588
2017-11-13T14:55:47.753Z,1540
2017-11-13T14:57:10.339Z,1492
2017-11-13T14:58:32.916Z,1436
2017-11-13T14:59:55.532Z,1376
2017-11-13T15:01:17.885Z,1304
2017-11-13T15:02:40.094Z,1224
2017-11-13T15:04:02.307Z,1156
2017-11-13T15:05:24.647Z,1104
2017-11-13T15:06:46.826Z,1060
2017-11-13T15:08:08.717Z,1016
2017-11-13T15:09:30.944Z,964
2017-11-13T15:10:52.843Z,912
2017-11-13T15:12:15.062Z,868
2017-11-13T15:13:37.256Z,828
2017-11-13T15:14:59.804Z,780
2017-11-13T15:16:22.094Z,732
2017-11-13T15:17:43.631Z,680
2017-11-13T15:19:06.249Z,628
2017-11-13T15:20:28.846Z,576
2017-11-13T15:21:51.048Z,520
2017-11-13T15:23:13.423Z,468
2017-11-13T15:24:35.975Z,424
2017-11-13T15:25:58.275Z,380
2017-11-13T15:27:20.479Z,344
2017-11-13T15:28:43.027Z,308
2017-11-13T15:30:05.015Z,276
2017-11-13T15:31:27.222Z,248
2017-11-13T15:32:49.740Z,220
2017-11-13T15:34:11.962Z,192
2017-11-13T15:35:33.205Z,168
2017-11-13T15:36:55.404Z,148
2017-11-13T15:38:17.946Z,128
2017-11-13T15:39:40.646Z,108
2017-11-13T15:41:02.847Z,92
2017-11-13T15:42:24.820Z,80
2017-11-13T15:43:47.384Z,64
2017-11-13T15:45:09.245Z,56
2017-11-13T15:46:31.761Z,44
2017-11-13T15:47:54.319Z,36
2017-11-13T15:49:16.535Z,28
2017-11-13T15:50:39.076Z,24
2017-11-13T15:52:01.601Z,20
2017-11-13T15:53:23.816Z,16
2017-11-13T15:54:45.328Z,12
2017-11-13T15:56:07.926Z,8
2017-11-13T15:57:29.788Z,8
2017-11-13T15:58:52.455Z,4
2017-11-13T16:00:15.007Z,4
2017-11-13T16:01:36.531Z,4
2017-11-13T16:02:58.128Z,4
2017-11-13T16:04:20.330Z,0
2017-11-13T16:05:42.548Z,4
2017-11-13T16:07:05.104Z,0
2017-11-13T16:08:27.718Z,0
2017-11-13T16:09:49.945Z,0
2017-11-13T16:11:11.825Z,0
2017-11-13T16:12:34.126Z,0
2017-11-13T16:13:56.337Z,0
2017-11-13T16:15:18.198Z,0
2017-11-13T16:16:40.378Z,0
2017-11-13T16:18:01.966Z,0
2017-11-13T16:19:24.157Z,0
2017-11-13T16:20:46.700Z,0
2017-11-13T16:22:09.231Z,0
2017-11-13T16:23:31.095Z,0
2017-11-13T16:24:53.715Z,0
2017-11-13T16:26:15.644Z,0
2017-11-13T16:27:37.824Z,0
2017-11-13T16:29:00.015Z,0
2017-11-13T16:30:22.750Z,0
2017-11-13T16:31:45.296Z,0
2017-11-13T16:33:07.834Z,0
2017-11-13T16:34:29.711Z,0
2017-11-13T16:35:52.239Z,0
2017-11-13T16:37:14.881Z,0
2017-11-13T16:38:36.508Z,0
2017-11-13T16:39:58.716Z,0
2017-11-13T16:41:20.957Z,0
2017-11-13T16:42:42.840Z,0
2017-11-13T16:44:05.065Z,0
2017-11-13T16:45:27.622Z,0
2017-11-13T16:46:49.839Z,0
2017-11-13T16:48:12.052Z,0
2017-11-13T16:49:34.246Z,0
2017-11-13T16:50:56.453Z,0
2017-11-13T16:52:18.780Z,0
2017-11-13T16:53:41.086Z,0
2017-11-13T16:55:03.312Z,0
2017-11-13T16:56:25.493Z,0
2017-11-13T16:57:48.150Z,0
2017-11-13T16:59:10.388Z,0
2017-11-13T17:00:32.946Z,0
2017-11-13T17:01:55.473Z,0
2017-11-13T17:03:17.715Z,0
2017-11-13T17:04:39.973Z,0
2017-11-13T17:06:02.183Z,0
2017-11-13T17:07:24.368Z,0
2017-11-13T17:08:46.542Z,0
2017-11-13T17:10:09.066Z,0
2017-11-13T17:11:31.003Z,0
2017-11-13T17:12:53.615Z,0
2017-11-13T17:14:15.620Z,0
2017-11-13T17:15:37.865Z,0
2017-11-13T17:17:00.078Z,0
2017-11-13T17:18:21.935Z,0
2017-11-13T17:19:44.280Z,0
2017-11-13T17:21:06.817Z,0
2017-11-13T17:22:29.037Z,0
2017-11-13T17:23:50.686Z,0
2017-11-13T17:25:12.922Z,0
2017-11-13T17:26:35.129Z,0
2017-11-13T17:27:57.716Z,0
2017-11-13T17:29:20.687Z,0
2017-11-13T17:30:43.248Z,0
2017-11-13T17:32:05.814Z,0
2017-11-13T17:33:28.025Z,0
2017-11-13T17:34:50.564Z,0
2017-11-13T17:36:13.246Z,0
2017-11-13T17:37:35.775Z,0
2017-11-13T17:38:57.724Z,0
2017-11-13T17:40:20.301Z,0
2017-11-13T17:41:42.517Z,0
2017-11-13T17:43:04.733Z,0
2017-11-13T17:44:26.697Z,0
2017-11-13T17:45:48.901Z,12
2017-11-13T17:47:11.103Z,0
2017-11-13T17:48:32.979Z,0
2017-11-13T17:49:55.256Z,0
2017-11-13T17:51:17.144Z,0
2017-11-13T17:52:39.836Z,0
2017-11-13T17:54:02.036Z,0
2017-11-13T17:55:24.334Z,0
2017-11-13T17:56:46.567Z,0
2017-11-13T17:58:08.444Z,0
2017-11-13T17:59:30.625Z,0
2017-11-13T18:00:53.190Z,0
2017-11-13T18:02:15.625Z,0
2017-11-13T18:03:37.832Z,0
2017-11-13T18:05:00.046Z,0
2017-11-13T18:06:22.304Z,0
2017-11-13T18:07:44.154Z,0
2017-11-13T18:09:06.025Z,0
2017-11-13T18:10:28.629Z,0
2017-11-13T18:11:51.157Z,0
2017-11-13T18:13:13.714Z,0
2017-11-13T18:14:35.640Z,0
2017-11-13T18:15:57.865Z,0
2017-11-13T18:17:19.743Z,0
2017-11-13T18:18:42.378Z,0
2017-11-13T18:20:04.920Z,12
2017-11-13T18:21:27.456Z,12
2017-11-13T18:22:51.742Z,8
2017-11-13T18:24:13.645Z,8
2017-11-13T18:25:36.214Z,8
2017-11-13T18:26:58.097Z,8
2017-11-13T18:28:20.348Z,8
2017-11-13T18:29:42.893Z,8
2017-11-13T18:31:05.085Z,8
2017-11-13T18:32:27.277Z,0
2017-11-13T18:33:48.818Z,0
2017-11-13T18:35:11.380Z,0
2017-11-13T18:36:33.617Z,0
2017-11-13T18:37:56.158Z,0
2017-11-13T18:39:18.763Z,0
2017-11-13T18:40:40.803Z,0
2017-11-13T18:42:03.365Z,0
2017-11-13T18:43:25.931Z,0
2017-11-13T18:44:48.256Z,0
2017-11-13T18:46:10.807Z,0
2017-11-13T18:47:33.385Z,0
2017-11-13T18:48:55.725Z,0
2017-11-13T18:50:18.049Z,0
2017-11-13T18:51:40.305Z,0
2017-11-13T18:53:02.877Z,0
2017-11-13T18:54:25.125Z,0
2017-11-13T18:55:47.030Z,0
2017-11-13T18:57:09.624Z,0
2017-11-13T18:58:32.196Z,0
2017-11-13T18:59:54.416Z,0
2017-11-13T19:01:17.105Z,0
2017-11-13T19:02:39.385Z,0
2017-11-13T19:04:02.009Z,0
2017-11-13T19:05:24.674Z,0
2017-11-13T19:06:47.228Z,0
2017-11-13T19:08:09.823Z,0
2017-11-13T19:09:31.681Z,0
2017-11-13T19:10:53.896Z,0
2017-11-13T19:12:16.497Z,0
2017-11-13T19:13:39.092Z,0
2017-11-13T19:15:01.663Z,0
2017-11-13T19:16:24.244Z,0
2017-11-13T19:17:45.805Z,0
2017-11-13T19:19:08.333Z,0
2017-11-13T19:20:30.554Z,0
2017-11-13T19:21:53.117Z,0
2017-11-13T19:23:15.892Z,0
2017-11-13T19:24:38.474Z,0
2017-11-13T19:26:01.025Z,0
2017-11-13T19:27:23.581Z,0
2017-11-13T19:28:45.833Z,0
2017-11-13T19:30:08.136Z,0
2017-11-13T19:31:30.384Z,0
2017-11-13T19:32:52.662Z,0
2017-11-13T19:34:15.289Z,0
2017-11-13T19:35:37.875Z,0
2017-11-13T19:37:00.566Z,0
2017-11-13T19:38:22.431Z,0
2017-11-13T19:39:44.636Z,0
2017-11-13T19:41:06.531Z,0
2017-11-13T19:42:28.783Z,0
2017-11-13T19:43:51.034Z,0
2017-11-13T19:45:13.598Z,0
2017-11-13T19:46:35.489Z,0
2017-11-13T19:47:57.385Z,0
2017-11-13T19:49:19.692Z,0
2017-11-13T19:50:41.616Z,0
2017-11-13T19:52:04.222Z,0
2017-11-13T19:53:26.983Z,0
